Nearby METAR Reports

 

KCPC - Whiteville, North Carolina, USA
Distance from station: NNE 17mi, 28km
Updated: 07/26/2017 8:25am
Clear
Clear
 Wind from NE
Wind: NE 5 mph , 7 km/h
Temperature: 77°F , 25°C
Dew Point: 72°F , 22°C
Humidity: 83%
Barometer: 30.13 inHg , 1020.3 hPa
Clouds: Clear
Visibility: 10 miles , 16 km
2017/07/26 12:25 KCPC 261225Z AUTO 05004KT 10SM CLR 25/22 A3013 RMK AO2 T02460219
KCRE - North Myrtle Bea, South Carolina, USA
Distance from station: SSE 19mi, 31km
Updated: 07/26/2017 7:53am
Overcast
Overcast
 Wind from NE
Wind: NE 9 mph , 15 km/h
Temperature: 79°F , 26°C
Dew Point: 75°F , 24°C
Humidity: 89%
Barometer: 30.11 inHg , 1019.6 hPa
Clouds: Overcast
Visibility: 8 miles , 13 km
Cloud details: Few Clouds 1000 ft
Mostly cloudy 1600 ft
Overcast 2600 ft
2017/07/26 11:53 KCRE 261153Z 04008KT 8SM FEW010 BKN016 OVC026 26/24 A3011 RMK AO1 SLP195 60000 T02560244 10256 20244 51017
 
KHYW - Conway-Horry Cty, South Carolina, USA
Distance from station: SW 22mi, 35km
Updated: 07/26/2017 8:35am
Mist, Overcast
Mist, Overcast
 Wind from NE
Wind: NE 7 mph , 11 km/h
Temperature: 77°F , 25°C
Dew Point: 73°F , 23°C
Humidity: 89%
Barometer: 30.13 inHg , 1020.3 hPa
Summary: Mist
Clouds: Overcast
Visibility: 5 miles , 8 km
Cloud details: Overcast 800 ft
2017/07/26 12:35 KHYW 261235Z AUTO 05006KT 5SM BR OVC008 25/23 A3013 RMK AO2
KMAO - Marion, South Carolina, USA
Distance from station: WNW 28mi, 45km
Updated: 07/26/2017 8:35am
Mostly cloudy
Mostly cloudy
 Wind from E
Wind: E 9 mph , 15 km/h
Temperature: 77°F , 25°C
Dew Point: 72°F , 22°C
Humidity: 83%
Barometer: 30.13 inHg , 1020.3 hPa
Clouds: Mostly cloudy
Visibility: 7 miles , 11 km
Cloud details: Mostly cloudy 1100 ft
2017/07/26 12:35 KMAO 261235Z AUTO 08008KT 050V110 7SM BKN011 25/22 A3013 RMK AO2
 
KMYR - Myrtle Beach, South Carolina, USA
Distance from station: S 28mi, 45km
Updated: 07/26/2017 7:45am
Overcast
Overcast
 Wind from NNE
Wind: NNE 8 mph , 13 km/h
Temperature: 79°F , 26°C
Dew Point: 75°F , 24°C
Humidity: 89%
Barometer: 30.12 inHg , 1020 hPa
Clouds: Overcast
Visibility: 7 miles , 11 km
Cloud details: Overcast 700 ft
2017/07/26 11:45 KMYR 261145Z 03007KT 7SM OVC007 26/24 A3012
KLBT - Lumberton, North Carolina, USA
Distance from station: NNW 39mi, 62km
Updated: 07/26/2017 8:28am
Partly cloudy
Partly cloudy
 Wind from NE
Wind: NE 10 mph , 17 km/h
Temperature: 77°F , 25°C
Dew Point: 70°F , 21°C
Humidity: 79%
Barometer: 30.14 inHg , 1020.7 hPa
Clouds: Partly cloudy
Visibility: 10 miles , 16 km
Cloud details: Partly cloudy 2800 ft
2017/07/26 12:28 KLBT 261228Z AUTO 05009KT 10SM SCT028 25/21 A3014 RMK AO2 T02500206
 
KSUT - Southport, North Carolina, USA
Distance from station: E 46mi, 74km
Updated: 07/26/2017 8:30am
Mostly cloudy
Mostly cloudy
 Wind from NE
Wind: NE 6 mph , 9 km/h
Temperature: 81°F , 27°C
Heat Index: 88°F , 31°C
Dew Point: 77°F , 25°C
Humidity: 89%
Barometer: 30.11 inHg , 1019.6 hPa
Clouds: Mostly cloudy
Visibility: 10 miles , 16 km
Cloud details: Mostly cloudy 1600 ft
Mostly cloudy 2400 ft
2017/07/26 12:30 KSUT 261230Z AUTO 05005KT 10SM BKN016 BKN024 27/25 A3011 RMK AO2 T02690246
KFLO - Florence, South Carolina, USA
Distance from station: W 50mi, 81km
Updated: 07/26/2017 8:15am
Overcast
Overcast
 Wind from E
Wind: E 12 mph , 19 km/h
Temperature: 79°F , 26°C
Dew Point: 75°F , 24°C
Humidity: 89%
Barometer: 30.13 inHg , 1020.3 hPa
Clouds: Overcast
Visibility: 10 miles , 16 km
Cloud details: Overcast 1000 ft
2017/07/26 12:15 KFLO 261215Z 08010KT 10SM OVC010 26/24 A3013 RMK AO2 T02560244